createdAt,value
2018-09-26T00:01:46.398Z,10.29
2018-09-26T00:04:17.191Z,10.35
2018-09-26T00:06:44.164Z,10.33
2018-09-26T00:09:12.109Z,10.25
2018-09-26T00:11:39.215Z,10.33
2018-09-26T00:14:06.395Z,10.37
2018-09-26T00:16:33.503Z,10.36
2018-09-26T00:19:01.644Z,10.37
2018-09-26T00:21:28.640Z,10.29
2018-09-26T00:23:55.671Z,10.33
2018-09-26T00:26:27.363Z,10.41
2018-09-26T00:28:54.419Z,10.38
2018-09-26T00:31:21.568Z,10.36
2018-09-26T00:33:48.928Z,10.30
2018-09-26T00:36:15.919Z,10.32
2018-09-26T00:38:42.866Z,10.27
2018-09-26T00:41:09.968Z,10.29
2018-09-26T00:43:37.024Z,10.25
2018-09-26T00:46:04.481Z,10.18
2018-09-26T00:48:31.455Z,10.20
2018-09-26T00:50:58.592Z,10.20
2018-09-26T00:53:25.607Z,10.20
2018-09-26T00:55:52.579Z,10.32
2018-09-26T00:58:19.655Z,10.23
2018-09-26T01:00:47.072Z,10.28
2018-09-26T01:03:14.127Z,10.25
2018-09-26T01:05:41.176Z,10.14
2018-09-26T01:08:08.164Z,10.18
2018-09-26T01:10:35.161Z,10.19
2018-09-26T01:13:02.176Z,10.12
2018-09-26T01:15:29.169Z,10.19
2018-09-26T01:17:56.150Z,10.12
2018-09-26T01:20:23.540Z,10.29
2018-09-26T01:22:50.626Z,10.21
2018-09-26T01:25:17.607Z,10.13
2018-09-26T01:27:44.603Z,10.11
2018-09-26T01:30:11.588Z,10.09
2018-09-26T01:32:38.900Z,10.08
2018-09-26T01:35:05.891Z,10.03
2018-09-26T01:37:32.912Z,9.98
2018-09-26T01:40:00.428Z,9.87
2018-09-26T01:42:27.450Z,9.92
2018-09-26T01:44:54.524Z,9.87
2018-09-26T01:47:21.884Z,9.83
2018-09-26T01:49:48.885Z,9.90
2018-09-26T01:52:15.871Z,9.93
2018-09-26T01:54:43.227Z,9.73
2018-09-26T01:57:10.211Z,9.75
2018-09-26T01:59:37.295Z,9.71
2018-09-26T02:02:04.391Z,9.73
2018-09-26T02:04:31.451Z,9.69
2018-09-26T02:06:58.470Z,9.81
2018-09-26T02:09:25.444Z,9.71
2018-09-26T02:11:52.436Z,9.60
2018-09-26T02:14:19.416Z,9.63
2018-09-26T02:16:46.400Z,9.62
2018-09-26T02:19:13.536Z,9.52
2018-09-26T02:21:40.587Z,9.53
2018-09-26T02:24:07.595Z,9.53
2018-09-26T02:26:34.564Z,9.45
2018-09-26T02:29:01.556Z,9.43
2018-09-26T02:31:28.616Z,9.48
2018-09-26T02:33:55.880Z,9.43
2018-09-26T02:36:23.023Z,9.46
2018-09-26T02:38:50.068Z,9.37
2018-09-26T02:41:17.151Z,9.37
2018-09-26T02:43:44.211Z,9.29
2018-09-26T02:46:11.196Z,9.32
2018-09-26T02:48:43.867Z,9.32
2018-09-26T02:51:10.839Z,9.26
2018-09-26T02:53:37.830Z,9.21
2018-09-26T02:56:05.346Z,9.15
2018-09-26T02:58:32.432Z,9.15
2018-09-26T03:00:59.492Z,9.15
2018-09-26T03:03:26.507Z,9.24
2018-09-26T03:05:53.498Z,9.38
2018-09-26T03:08:20.483Z,9.45
2018-09-26T03:10:48.179Z,9.45
2018-09-26T03:13:15.114Z,9.37
2018-09-26T03:15:42.095Z,9.31
2018-09-26T03:18:09.104Z,9.26
2018-09-26T03:20:36.075Z,9.36
2018-09-26T03:23:03.099Z,9.27
2018-09-26T03:25:30.092Z,9.24
2018-09-26T03:27:57.071Z,9.29
2018-09-26T03:30:24.152Z,9.42
2018-09-26T03:32:51.225Z,9.33
2018-09-26T03:35:18.238Z,9.33
2018-09-26T03:37:45.271Z,9.32
2018-09-26T03:40:12.255Z,9.33
2018-09-26T03:42:39.292Z,9.30
2018-09-26T03:45:06.589Z,9.41
2018-09-26T03:47:33.647Z,9.36
2018-09-26T03:50:00.624Z,9.38
2018-09-26T03:52:27.600Z,9.40
2018-09-26T03:54:54.597Z,9.51
2018-09-26T03:57:21.647Z,9.34
2018-09-26T03:59:48.675Z,9.27
2018-09-26T04:02:15.760Z,9.32
2018-09-26T04:04:42.753Z,9.42
2018-09-26T04:07:09.807Z,9.37
2018-09-26T04:09:37.068Z,9.34
2018-09-26T04:12:04.060Z,9.31
2018-09-26T04:14:31.129Z,9.28
2018-09-26T04:16:58.135Z,9.23
2018-09-26T04:19:25.508Z,9.23
2018-09-26T04:21:52.475Z,9.29
2018-09-26T04:24:19.560Z,9.28
2018-09-26T04:26:46.704Z,9.21
2018-09-26T04:29:13.762Z,9.21
2018-09-26T04:31:40.747Z,9.31
2018-09-26T04:34:08.221Z,9.30
2018-09-26T04:36:35.199Z,9.20
2018-09-26T04:39:02.340Z,9.18
2018-09-26T04:41:29.349Z,9.18
2018-09-26T04:43:56.487Z,9.23
2018-09-26T04:46:23.458Z,9.21
2018-09-26T04:48:57.910Z,9.25
2018-09-26T04:51:24.877Z,9.26
2018-09-26T04:53:51.932Z,9.28
2018-09-26T04:56:18.907Z,9.35
2018-09-26T04:58:46.162Z,9.25
2018-09-26T05:01:13.227Z,9.35
2018-09-26T05:03:40.306Z,9.27
2018-09-26T05:06:07.296Z,9.27
2018-09-26T05:08:34.955Z,9.25
2018-09-26T05:11:02.009Z,9.27
2018-09-26T05:13:29.769Z,9.19
2018-09-26T05:15:56.732Z,9.26
2018-09-26T05:18:23.727Z,9.27
2018-09-26T05:20:50.804Z,9.25
2018-09-26T05:23:17.869Z,9.22
2018-09-26T05:25:45.195Z,9.26
2018-09-26T05:28:12.709Z,9.26
2018-09-26T05:30:39.760Z,9.20
2018-09-26T05:33:06.735Z,9.23
2018-09-26T05:35:33.903Z,9.27
2018-09-26T05:38:01.900Z,9.19
2018-09-26T05:40:28.964Z,9.16
2018-09-26T05:42:56.012Z,9.19
2018-09-26T05:45:23.038Z,9.14
2018-09-26T05:47:50.152Z,9.16
2018-09-26T05:50:17.164Z,9.28
2018-09-26T05:52:44.136Z,9.20
2018-09-26T05:55:11.247Z,9.16
2018-09-26T05:57:38.267Z,9.13
2018-09-26T06:00:05.268Z,9.18
2018-09-26T06:02:32.251Z,9.26
2018-09-26T06:04:59.268Z,9.16
2018-09-26T06:07:26.248Z,9.18
2018-09-26T06:09:53.303Z,9.22
2018-09-26T06:12:20.683Z,9.24
2018-09-26T06:14:47.653Z,9.24
2018-09-26T06:17:14.627Z,9.25
2018-09-26T06:19:41.643Z,9.27
2018-09-26T06:22:08.616Z,9.30
2018-09-26T06:24:35.849Z,9.32
2018-09-26T06:27:03.191Z,9.36
2018-09-26T06:29:30.247Z,9.27
2018-09-26T06:31:57.411Z,9.29
2018-09-26T06:34:24.525Z,9.28
2018-09-26T06:36:51.507Z,9.33
2018-09-26T06:39:18.579Z,9.30
2018-09-26T06:41:45.565Z,9.34
2018-09-26T06:44:12.539Z,9.43
2018-09-26T06:46:40.687Z,9.42
2018-09-26T06:49:07.848Z,9.49
2018-09-26T06:51:34.863Z,9.56
2018-09-26T06:54:02.716Z,9.51
2018-09-26T06:56:29.656Z,9.56
2018-09-26T06:58:56.643Z,9.62
2018-09-26T07:01:23.661Z,9.68
2018-09-26T07:03:50.764Z,9.65
2018-09-26T07:06:17.971Z,9.73
2018-09-26T07:08:46.489Z,9.76
2018-09-26T07:11:14.171Z,9.85
2018-09-26T07:13:42.919Z,9.95
2018-09-26T07:18:53.724Z,10.13
2018-09-26T07:21:20.795Z,10.21
2018-09-26T07:23:47.886Z,10.31
2018-09-26T07:26:14.863Z,10.35
2018-09-26T07:28:43.009Z,10.42
2018-09-26T07:31:10.477Z,10.44
2018-09-26T07:33:41.577Z,10.48
2018-09-26T07:36:09.875Z,10.54
2018-09-26T07:38:38.194Z,10.57
2018-09-26T07:41:11.324Z,10.60
2018-09-26T07:43:42.426Z,10.67
2018-09-26T07:46:11.172Z,10.71
2018-09-26T07:48:38.316Z,10.77
2018-09-26T07:51:09.490Z,10.84
2018-09-26T07:53:39.280Z,10.86
2018-09-26T07:56:06.319Z,10.99
2018-09-26T07:58:33.324Z,11.04
2018-09-26T08:01:00.723Z,11.10
2018-09-26T08:03:27.692Z,11.15
2018-09-26T08:05:54.699Z,11.22
2018-09-26T08:08:22.969Z,11.29
2018-09-26T08:10:49.967Z,11.36
2018-09-26T08:13:17.319Z,11.43
2018-09-26T08:15:45.517Z,11.54
2018-09-26T08:18:16.362Z,11.69
2018-09-26T08:20:44.754Z,11.81
2018-09-26T08:23:13.359Z,11.78
2018-09-26T08:25:46.275Z,11.81
2018-09-26T08:28:18.331Z,11.90
2018-09-26T08:30:45.350Z,11.92
2018-09-26T08:33:12.420Z,11.97
2018-09-26T08:35:39.567Z,12.07
2018-09-26T08:38:06.555Z,12.10
2018-09-26T08:40:33.580Z,12.10
2018-09-26T08:43:00.564Z,12.18
2018-09-26T08:45:27.641Z,12.30
2018-09-26T08:47:54.629Z,12.34
2018-09-26T08:50:29.236Z,12.49
2018-09-26T08:52:56.211Z,12.43
2018-09-26T08:55:23.204Z,12.41
2018-09-26T08:57:50.708Z,12.44
2018-09-26T09:00:23.689Z,12.60
2018-09-26T09:02:51.629Z,12.64
2018-09-26T09:05:18.624Z,12.53
2018-09-26T09:07:45.708Z,12.68
2018-09-26T09:10:13.399Z,12.84
2018-09-26T09:12:40.736Z,12.64
2018-09-26T09:15:07.832Z,12.78
2018-09-26T09:17:34.891Z,12.80
2018-09-26T09:20:01.885Z,12.76
2018-09-26T09:22:35.835Z,12.82
2018-09-26T09:25:02.860Z,12.94
2018-09-26T09:27:29.857Z,13.06
2018-09-26T09:29:58.096Z,13.14
2018-09-26T09:32:25.457Z,13.20
2018-09-26T09:34:52.439Z,13.16
2018-09-26T09:37:19.820Z,13.16
2018-09-26T09:39:46.800Z,13.26
2018-09-26T09:42:15.140Z,13.27
2018-09-26T09:44:47.133Z,13.39
2018-09-26T09:47:17.718Z,13.41
2018-09-26T09:49:49.061Z,13.40
2018-09-26T09:52:19.404Z,13.53
2018-09-26T09:54:49.930Z,13.56
2018-09-26T09:57:20.101Z,13.60
2018-09-26T09:59:49.584Z,13.53
2018-09-26T10:02:26.453Z,13.52
2018-09-26T10:04:56.085Z,13.55
2018-09-26T10:07:25.879Z,13.58
2018-09-26T10:09:54.054Z,13.57
2018-09-26T10:12:21.031Z,13.67
2018-09-26T10:14:48.417Z,13.63
2018-09-26T10:17:15.655Z,13.66
2018-09-26T10:19:42.631Z,13.73
2018-09-26T10:22:09.641Z,13.75
2018-09-26T10:24:36.665Z,13.75
2018-09-26T10:27:03.683Z,13.76
2018-09-26T10:29:30.661Z,13.74
2018-09-26T10:31:57.939Z,13.72
2018-09-26T10:36:59.220Z,13.90
2018-09-26T10:39:26.334Z,14.10
2018-09-26T10:41:53.383Z,14.23
2018-09-26T10:44:20.660Z,14.35
2018-09-26T10:46:47.636Z,14.39
2018-09-26T10:49:14.571Z,14.39
2018-09-26T10:51:41.924Z,14.45
2018-09-26T10:54:08.890Z,14.68
2018-09-26T10:56:36.080Z,14.85
2018-09-26T10:59:03.035Z,14.98
2018-09-26T11:01:30.065Z,14.92
2018-09-26T11:03:57.135Z,14.94
2018-09-26T11:06:24.399Z,15.05
2018-09-26T11:08:51.376Z,14.98
2018-09-26T11:11:18.460Z,15.10
2018-09-26T11:13:45.636Z,14.93
2018-09-26T11:16:12.617Z,15.09
2018-09-26T11:18:40.086Z,15.00
2018-09-26T11:21:07.160Z,14.96
2018-09-26T11:23:34.113Z,14.90
2018-09-26T11:26:01.118Z,15.01
2018-09-26T11:28:28.226Z,14.99
2018-09-26T11:30:55.175Z,14.90
2018-09-26T11:33:22.176Z,15.02
2018-09-26T11:35:49.156Z,14.99
2018-09-26T11:38:16.761Z,14.96
2018-09-26T11:40:43.815Z,15.10
2018-09-26T11:43:10.846Z,15.26
2018-09-26T11:45:37.944Z,15.32
2018-09-26T11:48:04.923Z,15.29
2018-09-26T11:50:31.907Z,15.38
2018-09-26T11:52:58.923Z,15.54
2018-09-26T11:55:26.044Z,15.55
2018-09-26T11:57:53.325Z,15.77
2018-09-26T12:00:21.116Z,15.85
2018-09-26T12:02:48.224Z,15.93
2018-09-26T12:05:15.419Z,15.91
2018-09-26T12:07:42.479Z,16.00
2018-09-26T12:10:09.568Z,16.13
2018-09-26T12:12:36.732Z,16.32
2018-09-26T12:15:03.765Z,16.48
2018-09-26T12:17:30.848Z,16.59
2018-09-26T12:19:57.823Z,16.96
2018-09-26T12:22:31.534Z,16.80
2018-09-26T12:24:58.476Z,17.20
2018-09-26T12:27:25.473Z,17.47
2018-09-26T12:29:52.804Z,17.38
2018-09-26T12:32:20.343Z,17.30
2018-09-26T12:34:47.427Z,17.03
2018-09-26T12:37:14.678Z,16.95
2018-09-26T12:39:41.705Z,16.95
2018-09-26T12:42:08.757Z,16.86
2018-09-26T12:44:36.107Z,16.88
2018-09-26T12:47:03.228Z,16.99
2018-09-26T12:49:30.291Z,17.08
2018-09-26T12:51:57.280Z,17.00
2018-09-26T12:54:24.271Z,16.85
2018-09-26T12:56:51.651Z,16.84
2018-09-26T12:59:18.647Z,16.78
2018-09-26T13:01:45.627Z,16.81
2018-09-26T13:04:13.167Z,16.78
2018-09-26T13:06:40.105Z,16.68
2018-09-26T13:09:07.245Z,16.61
2018-09-26T13:11:34.340Z,16.58
2018-09-26T13:14:01.317Z,16.54
2018-09-26T13:16:28.295Z,16.58
2018-09-26T13:18:55.372Z,16.55
2018-09-26T13:21:22.364Z,16.52
2018-09-26T13:23:49.368Z,16.55
2018-09-26T13:26:16.616Z,16.59
2018-09-26T13:28:43.596Z,16.52
2018-09-26T13:31:10.900Z,16.49
2018-09-26T13:33:37.913Z,16.45
2018-09-26T13:36:04.919Z,16.46
2018-09-26T13:38:32.004Z,16.50
2018-09-26T13:40:58.984Z,16.53
2018-09-26T13:43:26.264Z,16.48
2018-09-26T13:45:53.531Z,16.49
2018-09-26T13:48:20.559Z,16.49
2018-09-26T13:50:47.924Z,16.58
2018-09-26T13:53:14.903Z,16.60
2018-09-26T13:55:41.886Z,16.54
2018-09-26T13:58:08.902Z,16.51
2018-09-26T14:00:35.884Z,16.44
2018-09-26T14:03:02.895Z,16.43
2018-09-26T14:05:30.045Z,16.48
2018-09-26T14:07:57.124Z,16.63
2018-09-26T14:10:24.224Z,16.61
2018-09-26T14:12:51.250Z,16.54
2018-09-26T14:15:18.519Z,16.60
2018-09-26T14:17:45.493Z,16.67
2018-09-26T14:20:12.798Z,16.76
2018-09-26T14:22:39.847Z,16.82
2018-09-26T14:25:06.862Z,16.77
2018-09-26T14:27:33.875Z,16.78
2018-09-26T14:30:00.875Z,16.71
2018-09-26T14:32:28.167Z,16.79
2018-09-26T14:34:55.157Z,16.78
2018-09-26T14:37:29.280Z,16.83
2018-09-26T14:39:56.266Z,16.86
2018-09-26T14:42:23.337Z,16.94
2018-09-26T14:44:50.448Z,16.83
2018-09-26T14:47:17.538Z,16.74
2018-09-26T14:49:44.556Z,16.68
2018-09-26T14:52:11.658Z,16.63
2018-09-26T14:54:38.639Z,16.59
2018-09-26T14:57:05.877Z,16.53
2018-09-26T14:59:33.011Z,16.53
2018-09-26T15:02:06.981Z,16.52
2018-09-26T15:04:34.015Z,16.65
2018-09-26T15:07:00.996Z,16.58
2018-09-26T15:09:28.239Z,16.54
2018-09-26T15:11:55.237Z,16.51
2018-09-26T15:14:22.260Z,16.49
2018-09-26T15:16:49.519Z,16.46
2018-09-26T15:19:16.708Z,16.50
2018-09-26T15:21:43.915Z,16.51
2018-09-26T15:24:11.035Z,16.49
2018-09-26T15:26:38.162Z,16.52
2018-09-26T15:29:05.467Z,16.52
2018-09-26T15:31:32.464Z,16.50
2018-09-26T15:33:59.435Z,16.50
2018-09-26T15:36:26.516Z,16.51
2018-09-26T15:38:54.148Z,16.54
2018-09-26T15:41:21.469Z,16.52
2018-09-26T15:43:48.407Z,16.55
2018-09-26T15:46:15.463Z,16.52
2018-09-26T15:48:42.503Z,16.55
2018-09-26T15:51:09.480Z,16.58
2018-09-26T15:53:36.467Z,16.56
2018-09-26T15:56:03.776Z,16.58
2018-09-26T15:58:30.769Z,16.55
2018-09-26T16:00:57.746Z,16.54
2018-09-26T16:03:25.256Z,16.57
2018-09-26T16:05:52.232Z,16.53
2018-09-26T16:08:19.255Z,16.54
2018-09-26T16:10:46.257Z,16.49
2018-09-26T16:13:13.439Z,16.52
2018-09-26T16:15:40.510Z,16.52
2018-09-26T16:18:07.604Z,16.55
2018-09-26T16:20:34.551Z,16.52
2018-09-26T16:23:01.652Z,16.54
2018-09-26T16:25:29.049Z,16.54
2018-09-26T16:27:56.135Z,16.54
2018-09-26T16:30:23.268Z,16.56
2018-09-26T16:32:50.190Z,16.51
2018-09-26T16:35:17.211Z,16.50
2018-09-26T16:37:44.279Z,16.46
2018-09-26T16:40:11.315Z,16.38
2018-09-26T16:42:38.743Z,16.25
2018-09-26T16:45:05.868Z,16.15
2018-09-26T16:47:32.822Z,16.15
2018-09-26T16:49:59.824Z,16.06
2018-09-26T16:52:26.867Z,16.04
2018-09-26T16:54:53.891Z,16.04
2018-09-26T16:57:20.964Z,16.04
2018-09-26T16:59:47.961Z,15.98
2018-09-26T17:02:15.209Z,15.99
2018-09-26T17:04:48.927Z,16.00
2018-09-26T17:07:15.997Z,15.95
2018-09-26T17:09:42.916Z,15.95
2018-09-26T17:12:09.981Z,16.01
2018-09-26T17:14:37.360Z,15.97
2018-09-26T17:17:04.355Z,15.93
2018-09-26T17:19:31.387Z,15.93
2018-09-26T17:21:58.331Z,15.91
2018-09-26T17:24:25.389Z,15.92
2018-09-26T17:26:52.331Z,15.91
2018-09-26T17:29:19.296Z,15.92
2018-09-26T17:31:46.276Z,15.95
2018-09-26T17:34:13.582Z,15.91
2018-09-26T17:36:40.594Z,15.95
2018-09-26T17:39:07.897Z,15.98
2018-09-26T17:41:34.928Z,16.01
2018-09-26T17:44:02.024Z,16.04
2018-09-26T17:46:29.088Z,16.09
2018-09-26T17:48:56.140Z,16.10
2018-09-26T17:51:23.117Z,16.14
2018-09-26T17:53:50.101Z,16.15
2018-09-26T17:56:17.096Z,16.18
2018-09-26T17:58:44.172Z,16.15
2018-09-26T18:01:11.234Z,16.18
2018-09-26T18:03:38.224Z,16.20
2018-09-26T18:06:05.606Z,16.25
2018-09-26T18:08:32.614Z,16.26
2018-09-26T18:10:59.664Z,16.27
2018-09-26T18:13:26.671Z,16.27
2018-09-26T18:15:53.636Z,16.28
2018-09-26T18:18:20.701Z,16.31
2018-09-26T18:20:48.036Z,16.28
2018-09-26T18:23:15.047Z,16.29
2018-09-26T18:25:42.108Z,16.29
2018-09-26T18:28:09.100Z,16.22
2018-09-26T18:30:36.527Z,16.25
2018-09-26T18:33:03.676Z,16.28
2018-09-26T18:35:30.647Z,16.29
2018-09-26T18:37:57.640Z,16.29
2018-09-26T18:40:24.612Z,16.36
2018-09-26T18:42:51.583Z,16.32
2018-09-26T18:45:18.582Z,16.32
2018-09-26T18:47:45.644Z,16.32
2018-09-26T18:50:12.817Z,16.32
2018-09-26T18:52:40.192Z,16.31
2018-09-26T18:55:07.220Z,16.30
2018-09-26T18:57:34.243Z,16.31
2018-09-26T19:00:01.228Z,16.26
2018-09-26T19:02:28.304Z,16.30
2018-09-26T19:04:55.475Z,16.29
2018-09-26T19:07:22.376Z,16.28
2018-09-26T19:09:49.495Z,16.26
2018-09-26T19:12:16.584Z,16.29
2018-09-26T19:14:43.672Z,16.28
2018-09-26T19:17:10.651Z,16.31
2018-09-26T19:19:37.932Z,16.28
2018-09-26T19:22:04.911Z,16.31
2018-09-26T19:24:31.972Z,16.26
2018-09-26T19:26:59.042Z,16.29
2018-09-26T19:29:26.060Z,16.26
2018-09-26T19:31:53.039Z,16.27
2018-09-26T19:34:20.056Z,16.28
2018-09-26T19:36:47.045Z,16.28
2018-09-26T19:39:14.392Z,16.34
2018-09-26T19:41:41.374Z,16.31
2018-09-26T19:44:08.351Z,16.34
2018-09-26T19:46:35.375Z,16.35
2018-09-26T19:49:02.387Z,16.34
2018-09-26T19:51:29.370Z,16.34
2018-09-26T19:53:56.690Z,16.34
2018-09-26T19:56:23.821Z,16.28
2018-09-26T19:58:50.659Z,16.32
2018-09-26T20:01:17.655Z,16.28
2018-09-26T20:03:44.636Z,16.22
2018-09-26T20:06:11.615Z,16.19
2018-09-26T20:08:38.876Z,16.23
2018-09-26T20:11:05.917Z,16.24
2018-09-26T20:13:32.892Z,16.30
2018-09-26T20:15:59.877Z,16.27
2018-09-26T20:18:27.171Z,16.28
2018-09-26T20:20:54.143Z,16.17
2018-09-26T20:23:21.305Z,16.09
2018-09-26T20:25:48.308Z,16.02
2018-09-26T20:28:15.284Z,15.95
2018-09-26T20:30:42.257Z,15.92
2018-09-26T20:33:09.364Z,15.88
2018-09-26T20:35:36.323Z,15.87
2018-09-26T20:38:04.259Z,15.82
2018-09-26T20:40:31.327Z,15.79
2018-09-26T20:42:58.303Z,15.79
2018-09-26T20:45:25.924Z,15.83
2018-09-26T20:47:52.904Z,15.79
2018-09-26T20:50:19.875Z,15.71
2018-09-26T20:52:46.855Z,15.72
2018-09-26T20:55:13.816Z,15.69
2018-09-26T20:57:40.916Z,15.68
2018-09-26T21:00:07.912Z,15.62
2018-09-26T21:02:34.892Z,15.67
2018-09-26T21:05:02.097Z,15.51
2018-09-26T21:07:29.084Z,15.62
2018-09-26T21:09:56.180Z,15.61
2018-09-26T21:12:23.245Z,15.74
2018-09-26T21:14:50.219Z,15.58
2018-09-26T21:17:17.342Z,15.59
2018-09-26T21:19:44.407Z,15.58
2018-09-26T21:22:11.367Z,15.68
2018-09-26T21:24:38.603Z,15.56
2018-09-26T21:29:47.303Z,15.52
2018-09-26T21:32:14.286Z,15.56
2018-09-26T21:34:41.268Z,15.53
2018-09-26T21:37:08.255Z,15.55
2018-09-26T21:39:35.277Z,15.53
2018-09-26T21:42:02.271Z,15.55
2018-09-26T21:44:29.254Z,15.56
2018-09-26T21:46:56.265Z,15.55
2018-09-26T21:49:23.248Z,15.51
2018-09-26T21:51:50.232Z,15.53
2018-09-26T21:54:17.241Z,15.56
2018-09-26T21:56:44.243Z,15.56
2018-09-26T21:59:11.218Z,15.61
2018-09-26T22:01:38.204Z,15.51
2018-09-26T22:04:05.191Z,15.52
2018-09-26T22:06:32.172Z,15.52
2018-09-26T22:08:59.140Z,15.55
2018-09-26T22:11:26.189Z,15.59
2018-09-26T22:13:53.164Z,15.55
2018-09-26T22:16:20.366Z,15.59
2018-09-26T22:18:47.729Z,15.52
2018-09-26T22:21:14.707Z,15.58
2018-09-26T22:23:41.692Z,15.57
2018-09-26T22:26:08.665Z,15.54
2018-09-26T22:28:35.721Z,15.47
2018-09-26T22:31:02.755Z,15.52
2018-09-26T22:33:30.083Z,15.53
2018-09-26T22:35:57.405Z,15.50
2018-09-26T22:38:24.436Z,15.50
2018-09-26T22:40:51.463Z,15.54
2018-09-26T22:43:18.889Z,15.74
2018-09-26T22:45:45.951Z,15.62
2018-09-26T22:48:12.923Z,15.49
2018-09-26T22:50:40.086Z,15.46
2018-09-26T22:53:07.202Z,15.58
2018-09-26T22:55:34.203Z,15.60
2018-09-26T22:58:02.330Z,15.44
2018-09-26T23:00:29.323Z,15.43
2018-09-26T23:02:56.296Z,15.37
2018-09-26T23:05:23.294Z,15.39
2018-09-26T23:07:50.264Z,15.37
2018-09-26T23:10:17.372Z,15.38
2018-09-26T23:12:44.599Z,15.39
2018-09-26T23:15:11.835Z,15.42
2018-09-26T23:17:38.907Z,15.39
2018-09-26T23:20:06.159Z,15.37
2018-09-26T23:22:33.148Z,15.42
2018-09-26T23:25:00.124Z,15.43
2018-09-26T23:27:27.268Z,15.36
2018-09-26T23:32:35.823Z,15.43
2018-09-26T23:35:02.819Z,15.41
2018-09-26T23:37:29.795Z,15.42
2018-09-26T23:39:57.079Z,15.39
2018-09-26T23:42:24.043Z,15.44
2018-09-26T23:44:51.020Z,15.36
2018-09-26T23:47:18.220Z,15.36
2018-09-26T23:49:45.202Z,15.31
2018-09-26T23:52:12.184Z,15.33
2018-09-26T23:54:39.206Z,15.33
2018-09-26T23:59:40.036Z,15.32
